sensor_id;sensor_type;location;lat;lon;timestamp;temperature;humidity
21481;DHT22;10902;48.158;8.634;2023-09-30T00:00:35;13.60;99.90
21481;DHT22;10902;48.158;8.634;2023-09-30T00:03:22;13.60;99.90
21481;DHT22;10902;48.158;8.634;2023-09-30T00:06:08;13.50;99.90
21481;DHT22;10902;48.158;8.634;2023-09-30T00:08:53;13.40;99.90
21481;DHT22;10902;48.158;8.634;2023-09-30T00:11:39;13.30;99.90
21481;DHT22;10902;48.158;8.634;2023-09-30T00:14:27;13.20;99.90
21481;DHT22;10902;48.158;8.634;2023-09-30T00:17:14;13.20;99.90
21481;DHT22;10902;48.158;8.634;2023-09-30T00:20:00;13.10;99.90
21481;DHT22;10902;48.158;8.634;2023-09-30T00:22:48;12.80;99.90
21481;DHT22;10902;48.158;8.634;2023-09-30T00:25:33;12.50;99.90
21481;DHT22;10902;48.158;8.634;2023-09-30T00:28:19;12.60;99.90
21481;DHT22;10902;48.158;8.634;2023-09-30T00:31:08;12.50;99.90
21481;DHT22;10902;48.158;8.634;2023-09-30T00:33:57;12.50;99.90
21481;DHT22;10902;48.158;8.634;2023-09-30T00:36:43;12.20;99.90
21481;DHT22;10902;48.158;8.634;2023-09-30T00:39:35;12.10;99.90
21481;DHT22;10902;48.158;8.634;2023-09-30T00:42:22;12.00;99.90
21481;DHT22;10902;48.158;8.634;2023-09-30T00:45:08;12.10;99.90
21481;DHT22;10902;48.158;8.634;2023-09-30T00:47:58;12.20;99.90
21481;DHT22;10902;48.158;8.634;2023-09-30T00:50:44;12.30;99.90
21481;DHT22;10902;48.158;8.634;2023-09-30T00:53:31;12.20;99.90
21481;DHT22;10902;48.158;8.634;2023-09-30T00:56:18;12.20;99.90
21481;DHT22;10902;48.158;8.634;2023-09-30T00:59:18;12.10;99.90
21481;DHT22;10902;48.158;8.634;2023-09-30T01:02:06;12.30;99.90
21481;DHT22;10902;48.158;8.634;2023-09-30T01:04:52;12.40;99.90
21481;DHT22;10902;48.158;8.634;2023-09-30T01:07:49;12.40;99.90
21481;DHT22;10902;48.158;8.634;2023-09-30T01:10:34;12.30;99.90
21481;DHT22;10902;48.158;8.634;2023-09-30T01:13:20;12.30;99.90
21481;DHT22;10902;48.158;8.634;2023-09-30T01:16:09;12.30;99.90
21481;DHT22;10902;48.158;8.634;2023-09-30T01:18:55;12.10;99.90
21481;DHT22;10902;48.158;8.634;2023-09-30T01:21:43;11.90;99.90
21481;DHT22;10902;48.158;8.634;2023-09-30T01:24:41;11.80;99.90
21481;DHT22;10902;48.158;8.634;2023-09-30T01:27:28;11.60;99.90
21481;DHT22;10902;48.158;8.634;2023-09-30T01:30:14;11.50;99.90
21481;DHT22;10902;48.158;8.634;2023-09-30T01:32:59;11.30;99.90
21481;DHT22;10902;48.158;8.634;2023-09-30T01:35:45;11.20;99.90
21481;DHT22;10902;48.158;8.634;2023-09-30T01:38:34;11.30;99.90
21481;DHT22;10902;48.158;8.634;2023-09-30T01:41:22;11.40;99.90
21481;DHT22;10902;48.158;8.634;2023-09-30T01:44:08;11.20;99.90
21481;DHT22;10902;48.158;8.634;2023-09-30T01:46:54;11.00;99.90
21481;DHT22;10902;48.158;8.634;2023-09-30T01:49:40;10.90;99.90
21481;DHT22;10902;48.158;8.634;2023-09-30T01:52:28;10.90;99.90
21481;DHT22;10902;48.158;8.634;2023-09-30T01:55:15;11.00;99.90
21481;DHT22;10902;48.158;8.634;2023-09-30T01:58:01;11.00;99.90
21481;DHT22;10902;48.158;8.634;2023-09-30T02:00:48;11.00;99.90
21481;DHT22;10902;48.158;8.634;2023-09-30T02:03:34;11.00;99.90
21481;DHT22;10902;48.158;8.634;2023-09-30T02:06:20;11.00;99.90
21481;DHT22;10902;48.158;8.634;2023-09-30T02:09:06;11.00;99.90
21481;DHT22;10902;48.158;8.634;2023-09-30T02:11:54;11.10;99.90
21481;DHT22;10902;48.158;8.634;2023-09-30T02:14:42;11.10;99.90
21481;DHT22;10902;48.158;8.634;2023-09-30T02:17:30;10.90;99.90
21481;DHT22;10902;48.158;8.634;2023-09-30T02:20:16;10.80;99.90
21481;DHT22;10902;48.158;8.634;2023-09-30T02:23:11;10.80;99.90
21481;DHT22;10902;48.158;8.634;2023-09-30T02:26:09;11.00;99.90
21481;DHT22;10902;48.158;8.634;2023-09-30T02:28:55;11.00;99.90
21481;DHT22;10902;48.158;8.634;2023-09-30T02:31:41;11.00;99.90
21481;DHT22;10902;48.158;8.634;2023-09-30T02:34:43;11.00;99.90
21481;DHT22;10902;48.158;8.634;2023-09-30T02:37:34;11.00;99.90
21481;DHT22;10902;48.158;8.634;2023-09-30T02:40:23;11.00;99.90
21481;DHT22;10902;48.158;8.634;2023-09-30T02:43:14;11.00;99.90
21481;DHT22;10902;48.158;8.634;2023-09-30T02:45:59;11.00;99.90
21481;DHT22;10902;48.158;8.634;2023-09-30T02:48:45;11.10;99.90
21481;DHT22;10902;48.158;8.634;2023-09-30T02:51:31;11.10;99.90
21481;DHT22;10902;48.158;8.634;2023-09-30T02:54:17;11.20;99.90
21481;DHT22;10902;48.158;8.634;2023-09-30T02:57:05;11.20;99.90
21481;DHT22;10902;48.158;8.634;2023-09-30T02:59:55;11.30;99.90
21481;DHT22;10902;48.158;8.634;2023-09-30T03:02:42;11.20;99.90
21481;DHT22;10902;48.158;8.634;2023-09-30T03:05:48;11.30;99.90
21481;DHT22;10902;48.158;8.634;2023-09-30T03:08:37;11.40;99.90
21481;DHT22;10902;48.158;8.634;2023-09-30T03:11:35;11.40;99.90
21481;DHT22;10902;48.158;8.634;2023-09-30T03:14:24;11.40;99.90
21481;DHT22;10902;48.158;8.634;2023-09-30T03:17:11;11.30;99.90
21481;DHT22;10902;48.158;8.634;2023-09-30T03:20:01;11.30;99.90
21481;DHT22;10902;48.158;8.634;2023-09-30T03:22:47;11.30;99.90
21481;DHT22;10902;48.158;8.634;2023-09-30T03:25:36;11.30;99.90
21481;DHT22;10902;48.158;8.634;2023-09-30T03:28:30;11.20;99.90
21481;DHT22;10902;48.158;8.634;2023-09-30T03:31:19;11.20;99.90
21481;DHT22;10902;48.158;8.634;2023-09-30T03:34:08;11.30;99.90
21481;DHT22;10902;48.158;8.634;2023-09-30T03:37:01;11.30;99.90
21481;DHT22;10902;48.158;8.634;2023-09-30T03:39:59;11.40;99.90
21481;DHT22;10902;48.158;8.634;2023-09-30T03:42:47;11.40;99.90
21481;DHT22;10902;48.158;8.634;2023-09-30T03:45:34;11.30;99.90
21481;DHT22;10902;48.158;8.634;2023-09-30T03:48:22;11.10;99.90
21481;DHT22;10902;48.158;8.634;2023-09-30T03:51:09;10.90;99.90
21481;DHT22;10902;48.158;8.634;2023-09-30T03:53:55;10.90;99.90
21481;DHT22;10902;48.158;8.634;2023-09-30T03:56:41;11.00;99.90
21481;DHT22;10902;48.158;8.634;2023-09-30T03:59:27;10.90;99.90
21481;DHT22;10902;48.158;8.634;2023-09-30T04:02:16;10.90;99.90
21481;DHT22;10902;48.158;8.634;2023-09-30T04:05:02;10.80;99.90
21481;DHT22;10902;48.158;8.634;2023-09-30T04:07:51;10.90;99.90
21481;DHT22;10902;48.158;8.634;2023-09-30T04:10:37;10.80;99.90
21481;DHT22;10902;48.158;8.634;2023-09-30T04:13:23;10.70;99.90
21481;DHT22;10902;48.158;8.634;2023-09-30T04:16:10;10.70;99.90
21481;DHT22;10902;48.158;8.634;2023-09-30T04:18:56;10.60;99.90
21481;DHT22;10902;48.158;8.634;2023-09-30T04:21:49;10.60;99.90
21481;DHT22;10902;48.158;8.634;2023-09-30T04:24:35;10.70;99.90
21481;DHT22;10902;48.158;8.634;2023-09-30T04:27:24;10.70;99.90
21481;DHT22;10902;48.158;8.634;2023-09-30T04:30:10;10.80;99.90
21481;DHT22;10902;48.158;8.634;2023-09-30T04:32:56;10.70;99.90
21481;DHT22;10902;48.158;8.634;2023-09-30T04:35:42;10.60;99.90
21481;DHT22;10902;48.158;8.634;2023-09-30T04:38:28;10.70;99.90
21481;DHT22;10902;48.158;8.634;2023-09-30T04:41:16;10.80;99.90
21481;DHT22;10902;48.158;8.634;2023-09-30T04:44:02;10.90;99.90
21481;DHT22;10902;48.158;8.634;2023-09-30T04:46:47;11.10;99.90
21481;DHT22;10902;48.158;8.634;2023-09-30T04:49:33;11.20;99.90
21481;DHT22;10902;48.158;8.634;2023-09-30T04:52:19;11.10;99.90
21481;DHT22;10902;48.158;8.634;2023-09-30T04:55:09;11.10;99.90
21481;DHT22;10902;48.158;8.634;2023-09-30T04:58:03;11.20;99.90
21481;DHT22;10902;48.158;8.634;2023-09-30T05:00:50;11.10;99.90
21481;DHT22;10902;48.158;8.634;2023-09-30T05:03:41;11.10;99.90
21481;DHT22;10902;48.158;8.634;2023-09-30T05:06:47;11.20;99.90
21481;DHT22;10902;48.158;8.634;2023-09-30T05:09:35;11.10;99.90
21481;DHT22;10902;48.158;8.634;2023-09-30T05:12:21;11.00;99.90
21481;DHT22;10902;48.158;8.634;2023-09-30T05:15:07;10.80;99.90
21481;DHT22;10902;48.158;8.634;2023-09-30T05:17:53;10.90;99.90
21481;DHT22;10902;48.158;8.634;2023-09-30T05:20:39;10.90;99.90
21481;DHT22;10902;48.158;8.634;2023-09-30T05:23:24;11.00;99.90
21481;DHT22;10902;48.158;8.634;2023-09-30T05:26:11;11.00;99.90
21481;DHT22;10902;48.158;8.634;2023-09-30T05:28:57;11.00;99.90
21481;DHT22;10902;48.158;8.634;2023-09-30T05:31:42;10.90;99.90
21481;DHT22;10902;48.158;8.634;2023-09-30T05:34:28;10.90;99.90
21481;DHT22;10902;48.158;8.634;2023-09-30T05:37:17;10.90;99.90
21481;DHT22;10902;48.158;8.634;2023-09-30T05:40:09;11.00;99.90
21481;DHT22;10902;48.158;8.634;2023-09-30T05:43:11;11.10;99.90
21481;DHT22;10902;48.158;8.634;2023-09-30T05:45:59;11.10;99.90
21481;DHT22;10902;48.158;8.634;2023-09-30T05:48:45;11.10;99.90
21481;DHT22;10902;48.158;8.634;2023-09-30T05:51:31;11.00;99.90
21481;DHT22;10902;48.158;8.634;2023-09-30T05:54:17;11.20;99.90
21481;DHT22;10902;48.158;8.634;2023-09-30T05:57:03;11.30;99.90
21481;DHT22;10902;48.158;8.634;2023-09-30T05:59:49;11.20;99.90
21481;DHT22;10902;48.158;8.634;2023-09-30T06:02:35;11.10;99.90
21481;DHT22;10902;48.158;8.634;2023-09-30T06:05:21;11.20;99.90
21481;DHT22;10902;48.158;8.634;2023-09-30T06:08:12;11.20;99.90
21481;DHT22;10902;48.158;8.634;2023-09-30T06:11:01;11.20;99.90
21481;DHT22;10902;48.158;8.634;2023-09-30T06:13:47;11.10;99.90
21481;DHT22;10902;48.158;8.634;2023-09-30T06:16:33;11.00;99.90
21481;DHT22;10902;48.158;8.634;2023-09-30T06:19:20;11.00;99.90
21481;DHT22;10902;48.158;8.634;2023-09-30T06:22:08;11.00;99.90
21481;DHT22;10902;48.158;8.634;2023-09-30T06:24:55;11.10;99.90
21481;DHT22;10902;48.158;8.634;2023-09-30T06:27:44;11.20;99.90
21481;DHT22;10902;48.158;8.634;2023-09-30T06:30:36;11.40;99.90
21481;DHT22;10902;48.158;8.634;2023-09-30T06:33:22;11.30;99.90
21481;DHT22;10902;48.158;8.634;2023-09-30T06:36:12;11.40;99.90
21481;DHT22;10902;48.158;8.634;2023-09-30T06:39:02;11.60;99.90
21481;DHT22;10902;48.158;8.634;2023-09-30T06:41:52;11.70;99.90
21481;DHT22;10902;48.158;8.634;2023-09-30T06:44:38;11.90;99.90
21481;DHT22;10902;48.158;8.634;2023-09-30T06:47:24;12.10;99.90
21481;DHT22;10902;48.158;8.634;2023-09-30T06:50:11;12.30;99.90
21481;DHT22;10902;48.158;8.634;2023-09-30T06:52:59;12.60;99.90
21481;DHT22;10902;48.158;8.634;2023-09-30T06:55:45;12.80;99.90
21481;DHT22;10902;48.158;8.634;2023-09-30T06:58:38;12.70;99.90
21481;DHT22;10902;48.158;8.634;2023-09-30T07:01:25;12.70;99.90
21481;DHT22;10902;48.158;8.634;2023-09-30T07:04:18;13.00;99.90
21481;DHT22;10902;48.158;8.634;2023-09-30T07:07:09;13.20;99.90
21481;DHT22;10902;48.158;8.634;2023-09-30T07:09:56;13.50;99.90
21481;DHT22;10902;48.158;8.634;2023-09-30T07:12:42;13.80;99.90
21481;DHT22;10902;48.158;8.634;2023-09-30T07:15:28;14.00;99.90
21481;DHT22;10902;48.158;8.634;2023-09-30T07:18:14;14.30;99.90
21481;DHT22;10902;48.158;8.634;2023-09-30T07:21:03;14.40;99.90
21481;DHT22;10902;48.158;8.634;2023-09-30T07:23:49;14.60;99.90
21481;DHT22;10902;48.158;8.634;2023-09-30T07:26:50;14.60;99.90
21481;DHT22;10902;48.158;8.634;2023-09-30T07:29:39;14.90;99.90
21481;DHT22;10902;48.158;8.634;2023-09-30T07:32:28;15.10;99.90
21481;DHT22;10902;48.158;8.634;2023-09-30T07:35:18;15.20;99.90
21481;DHT22;10902;48.158;8.634;2023-09-30T07:38:12;15.30;99.90
21481;DHT22;10902;48.158;8.634;2023-09-30T07:41:02;15.30;99.90
21481;DHT22;10902;48.158;8.634;2023-09-30T07:43:50;15.40;99.90
21481;DHT22;10902;48.158;8.634;2023-09-30T07:46:38;15.60;99.90
21481;DHT22;10902;48.158;8.634;2023-09-30T07:49:25;15.90;99.90
21481;DHT22;10902;48.158;8.634;2023-09-30T07:52:12;16.00;99.90
21481;DHT22;10902;48.158;8.634;2023-09-30T07:54:59;16.30;99.90
21481;DHT22;10902;48.158;8.634;2023-09-30T07:57:44;16.60;99.90
21481;DHT22;10902;48.158;8.634;2023-09-30T08:00:31;17.00;99.90
21481;DHT22;10902;48.158;8.634;2023-09-30T08:03:22;17.20;99.90
21481;DHT22;10902;48.158;8.634;2023-09-30T08:06:12;17.40;99.90
21481;DHT22;10902;48.158;8.634;2023-09-30T08:08:58;17.60;99.90
21481;DHT22;10902;48.158;8.634;2023-09-30T08:11:44;17.70;99.90
21481;DHT22;10902;48.158;8.634;2023-09-30T08:14:33;17.80;99.90
21481;DHT22;10902;48.158;8.634;2023-09-30T08:17:24;17.70;99.90
21481;DHT22;10902;48.158;8.634;2023-09-30T08:20:10;18.00;99.90
21481;DHT22;10902;48.158;8.634;2023-09-30T08:22:56;18.20;99.90
21481;DHT22;10902;48.158;8.634;2023-09-30T08:25:43;18.00;99.90
21481;DHT22;10902;48.158;8.634;2023-09-30T08:28:32;17.80;99.90
21481;DHT22;10902;48.158;8.634;2023-09-30T08:31:18;17.90;99.90
21481;DHT22;10902;48.158;8.634;2023-09-30T08:34:05;18.20;99.90
21481;DHT22;10902;48.158;8.634;2023-09-30T08:36:52;18.30;99.90
21481;DHT22;10902;48.158;8.634;2023-09-30T08:39:39;18.70;99.90
21481;DHT22;10902;48.158;8.634;2023-09-30T08:42:28;19.00;99.90
21481;DHT22;10902;48.158;8.634;2023-09-30T08:45:20;19.50;99.90
21481;DHT22;10902;48.158;8.634;2023-09-30T08:48:06;19.60;99.90
21481;DHT22;10902;48.158;8.634;2023-09-30T08:50:54;19.50;99.90
21481;DHT22;10902;48.158;8.634;2023-09-30T08:53:45;19.10;99.90
21481;DHT22;10902;48.158;8.634;2023-09-30T08:56:33;19.40;99.90
21481;DHT22;10902;48.158;8.634;2023-09-30T08:59:19;19.50;99.90
21481;DHT22;10902;48.158;8.634;2023-09-30T09:02:08;18.80;99.90
21481;DHT22;10902;48.158;8.634;2023-09-30T09:04:55;19.00;99.90
21481;DHT22;10902;48.158;8.634;2023-09-30T09:07:46;19.30;99.90
21481;DHT22;10902;48.158;8.634;2023-09-30T09:10:57;19.50;99.90
21481;DHT22;10902;48.158;8.634;2023-09-30T09:13:56;19.70;99.90
21481;DHT22;10902;48.158;8.634;2023-09-30T09:16:53;20.00;99.90
21481;DHT22;10902;48.158;8.634;2023-09-30T09:19:42;20.40;99.90
21481;DHT22;10902;48.158;8.634;2023-09-30T09:22:55;20.80;99.90
21481;DHT22;10902;48.158;8.634;2023-09-30T09:25:49;21.10;99.90
21481;DHT22;10902;48.158;8.634;2023-09-30T09:28:44;21.70;99.90
21481;DHT22;10902;48.158;8.634;2023-09-30T09:32:05;22.10;99.90
21481;DHT22;10902;48.158;8.634;2023-09-30T09:35:08;21.90;99.90
21481;DHT22;10902;48.158;8.634;2023-09-30T09:38:01;21.60;99.90
21481;DHT22;10902;48.158;8.634;2023-09-30T09:40:59;22.50;99.90
21481;DHT22;10902;48.158;8.634;2023-09-30T09:44:07;22.50;99.90
21481;DHT22;10902;48.158;8.634;2023-09-30T09:46:59;22.20;99.90
21481;DHT22;10902;48.158;8.634;2023-09-30T09:53:41;22.00;99.90
21481;DHT22;10902;48.158;8.634;2023-09-30T09:57:24;22.50;99.90
21481;DHT22;10902;48.158;8.634;2023-09-30T10:05:13;22.70;99.90
21481;DHT22;10902;48.158;8.634;2023-09-30T10:08:11;23.50;99.90
21481;DHT22;10902;48.158;8.634;2023-09-30T11:08:35;24.80;99.90
21481;DHT22;10902;48.158;8.634;2023-09-30T11:12:26;24.20;99.90
21481;DHT22;10902;48.158;8.634;2023-09-30T11:15:44;24.30;99.90
21481;DHT22;10902;48.158;8.634;2023-09-30T11:18:59;23.80;99.90
21481;DHT22;10902;48.158;8.634;2023-09-30T11:22:05;23.30;99.90
21481;DHT22;10902;48.158;8.634;2023-09-30T11:24:54;23.10;99.90
21481;DHT22;10902;48.158;8.634;2023-09-30T11:28:01;23.70;99.90
21481;DHT22;10902;48.158;8.634;2023-09-30T11:31:21;24.10;99.90
21481;DHT22;10902;48.158;8.634;2023-09-30T11:34:33;24.00;99.90
21481;DHT22;10902;48.158;8.634;2023-09-30T11:37:47;23.80;99.90
21481;DHT22;10902;48.158;8.634;2023-09-30T11:41:36;23.50;99.90
21481;DHT22;10902;48.158;8.634;2023-09-30T11:44:49;23.10;99.90
21481;DHT22;10902;48.158;8.634;2023-09-30T11:47:38;22.60;99.90
21481;DHT22;10902;48.158;8.634;2023-09-30T11:50:49;22.10;99.90
21481;DHT22;10902;48.158;8.634;2023-09-30T11:53:49;22.40;99.90
21481;DHT22;10902;48.158;8.634;2023-09-30T12:12:04;26.90;99.90
21481;DHT22;10902;48.158;8.634;2023-09-30T12:15:15;27.00;99.90
21481;DHT22;10902;48.158;8.634;2023-09-30T12:18:50;25.60;99.90
21481;DHT22;10902;48.158;8.634;2023-09-30T12:21:54;25.00;99.90
21481;DHT22;10902;48.158;8.634;2023-09-30T12:25:13;25.30;99.90
21481;DHT22;10902;48.158;8.634;2023-09-30T12:28:08;25.40;99.90
21481;DHT22;10902;48.158;8.634;2023-09-30T12:31:31;25.00;99.90
21481;DHT22;10902;48.158;8.634;2023-09-30T12:34:32;25.30;99.90
21481;DHT22;10902;48.158;8.634;2023-09-30T12:37:50;25.00;99.90
21481;DHT22;10902;48.158;8.634;2023-09-30T12:49:28;26.60;99.90
21481;DHT22;10902;48.158;8.634;2023-09-30T13:39:45;26.50;99.90
21481;DHT22;10902;48.158;8.634;2023-09-30T14:55:48;26.70;99.90
21481;DHT22;10902;48.158;8.634;2023-09-30T14:58:49;25.00;99.90
21481;DHT22;10902;48.158;8.634;2023-09-30T15:07:57;26.80;99.90
21481;DHT22;10902;48.158;8.634;2023-09-30T15:11:36;26.30;99.90
21481;DHT22;10902;48.158;8.634;2023-09-30T15:14:57;25.30;99.90
21481;DHT22;10902;48.158;8.634;2023-09-30T15:17:53;25.40;99.90
21481;DHT22;10902;48.158;8.634;2023-09-30T15:48:22;27.50;99.90
21481;DHT22;10902;48.158;8.634;2023-09-30T16:00:06;25.10;99.90
21481;DHT22;10902;48.158;8.634;2023-09-30T16:04:29;24.80;99.90
21481;DHT22;10902;48.158;8.634;2023-09-30T16:08:16;24.40;99.90
21481;DHT22;10902;48.158;8.634;2023-09-30T16:11:02;23.40;99.90
21481;DHT22;10902;48.158;8.634;2023-09-30T16:13:53;23.10;99.90
21481;DHT22;10902;48.158;8.634;2023-09-30T16:17:21;23.20;99.90
21481;DHT22;10902;48.158;8.634;2023-09-30T16:20:32;23.10;99.90
21481;DHT22;10902;48.158;8.634;2023-09-30T16:23:53;22.80;99.90
21481;DHT22;10902;48.158;8.634;2023-09-30T16:27:34;22.50;99.90
21481;DHT22;10902;48.158;8.634;2023-09-30T16:30:34;21.80;99.90
21481;DHT22;10902;48.158;8.634;2023-09-30T16:33:23;21.50;99.90
21481;DHT22;10902;48.158;8.634;2023-09-30T16:36:15;21.10;99.90
21481;DHT22;10902;48.158;8.634;2023-09-30T16:39:03;20.70;99.90
21481;DHT22;10902;48.158;8.634;2023-09-30T16:41:53;20.40;99.90
21481;DHT22;10902;48.158;8.634;2023-09-30T16:44:39;20.20;99.90
21481;DHT22;10902;48.158;8.634;2023-09-30T16:47:38;20.10;99.90
21481;DHT22;10902;48.158;8.634;2023-09-30T16:50:36;19.50;99.90
21481;DHT22;10902;48.158;8.634;2023-09-30T16:53:23;19.10;99.90
21481;DHT22;10902;48.158;8.634;2023-09-30T16:56:11;18.60;99.90
21481;DHT22;10902;48.158;8.634;2023-09-30T16:58:59;18.10;99.90
21481;DHT22;10902;48.158;8.634;2023-09-30T17:01:48;17.70;99.90
21481;DHT22;10902;48.158;8.634;2023-09-30T17:04:41;17.40;99.90
21481;DHT22;10902;48.158;8.634;2023-09-30T17:07:29;17.20;99.90
21481;DHT22;10902;48.158;8.634;2023-09-30T17:10:16;17.10;99.90
21481;DHT22;10902;48.158;8.634;2023-09-30T17:13:03;17.00;99.90
21481;DHT22;10902;48.158;8.634;2023-09-30T17:15:54;16.90;99.90
21481;DHT22;10902;48.158;8.634;2023-09-30T17:18:40;16.70;99.90
21481;DHT22;10902;48.158;8.634;2023-09-30T17:21:52;16.60;99.90
21481;DHT22;10902;48.158;8.634;2023-09-30T17:24:44;16.50;99.90
21481;DHT22;10902;48.158;8.634;2023-09-30T17:27:37;16.50;99.90
21481;DHT22;10902;48.158;8.634;2023-09-30T17:30:30;16.40;99.90
21481;DHT22;10902;48.158;8.634;2023-09-30T17:33:18;16.30;99.90
21481;DHT22;10902;48.158;8.634;2023-09-30T17:36:12;16.30;99.90
21481;DHT22;10902;48.158;8.634;2023-09-30T17:38:58;16.20;99.90
21481;DHT22;10902;48.158;8.634;2023-09-30T17:41:45;16.10;99.90
21481;DHT22;10902;48.158;8.634;2023-09-30T17:44:33;16.10;99.90
21481;DHT22;10902;48.158;8.634;2023-09-30T17:47:25;16.10;99.90
21481;DHT22;10902;48.158;8.634;2023-09-30T17:50:20;16.10;99.90
21481;DHT22;10902;48.158;8.634;2023-09-30T17:53:14;16.20;99.90
21481;DHT22;10902;48.158;8.634;2023-09-30T17:56:22;16.10;99.90
21481;DHT22;10902;48.158;8.634;2023-09-30T17:59:21;16.00;99.90
21481;DHT22;10902;48.158;8.634;2023-09-30T18:02:10;15.90;99.90
21481;DHT22;10902;48.158;8.634;2023-09-30T18:05:00;15.90;99.90
21481;DHT22;10902;48.158;8.634;2023-09-30T18:07:50;15.80;99.90
21481;DHT22;10902;48.158;8.634;2023-09-30T18:10:39;15.70;99.90
21481;DHT22;10902;48.158;8.634;2023-09-30T18:13:34;15.60;99.90
21481;DHT22;10902;48.158;8.634;2023-09-30T18:16:24;15.50;99.90
21481;DHT22;10902;48.158;8.634;2023-09-30T18:19:10;15.40;99.90
21481;DHT22;10902;48.158;8.634;2023-09-30T18:21:57;15.20;99.90
21481;DHT22;10902;48.158;8.634;2023-09-30T18:24:50;15.10;99.90
21481;DHT22;10902;48.158;8.634;2023-09-30T18:27:40;15.10;99.90
21481;DHT22;10902;48.158;8.634;2023-09-30T18:30:34;14.90;99.90
21481;DHT22;10902;48.158;8.634;2023-09-30T18:33:35;14.70;99.90
21481;DHT22;10902;48.158;8.634;2023-09-30T18:36:36;14.70;99.90
21481;DHT22;10902;48.158;8.634;2023-09-30T18:39:35;14.50;99.90
21481;DHT22;10902;48.158;8.634;2023-09-30T18:42:27;14.30;99.90
21481;DHT22;10902;48.158;8.634;2023-09-30T18:45:14;14.20;99.90
21481;DHT22;10902;48.158;8.634;2023-09-30T18:48:00;14.10;99.90
21481;DHT22;10902;48.158;8.634;2023-09-30T18:50:51;14.00;99.90
21481;DHT22;10902;48.158;8.634;2023-09-30T18:53:50;13.90;99.90
21481;DHT22;10902;48.158;8.634;2023-09-30T18:56:44;13.70;99.90
21481;DHT22;10902;48.158;8.634;2023-09-30T18:59:34;13.60;99.90
21481;DHT22;10902;48.158;8.634;2023-09-30T19:02:22;13.50;99.90
21481;DHT22;10902;48.158;8.634;2023-09-30T19:05:12;13.40;99.90
21481;DHT22;10902;48.158;8.634;2023-09-30T19:08:18;13.40;99.90
21481;DHT22;10902;48.158;8.634;2023-09-30T19:11:12;13.30;99.90
21481;DHT22;10902;48.158;8.634;2023-09-30T19:14:03;13.20;99.90
21481;DHT22;10902;48.158;8.634;2023-09-30T19:16:52;13.10;99.90
21481;DHT22;10902;48.158;8.634;2023-09-30T19:19:50;13.20;99.90
21481;DHT22;10902;48.158;8.634;2023-09-30T19:22:41;13.20;99.90
21481;DHT22;10902;48.158;8.634;2023-09-30T19:25:41;13.20;99.90
21481;DHT22;10902;48.158;8.634;2023-09-30T19:28:33;13.20;99.90
21481;DHT22;10902;48.158;8.634;2023-09-30T19:31:23;13.20;99.90
21481;DHT22;10902;48.158;8.634;2023-09-30T19:34:17;13.30;99.90
21481;DHT22;10902;48.158;8.634;2023-09-30T19:37:15;13.40;99.90
21481;DHT22;10902;48.158;8.634;2023-09-30T19:40:00;13.40;99.90
21481;DHT22;10902;48.158;8.634;2023-09-30T19:42:49;13.40;99.90
21481;DHT22;10902;48.158;8.634;2023-09-30T19:45:40;13.50;99.90
21481;DHT22;10902;48.158;8.634;2023-09-30T19:48:26;13.50;99.90
21481;DHT22;10902;48.158;8.634;2023-09-30T19:51:12;13.60;99.90
21481;DHT22;10902;48.158;8.634;2023-09-30T19:54:03;13.50;99.90
21481;DHT22;10902;48.158;8.634;2023-09-30T19:57:02;13.20;99.90
21481;DHT22;10902;48.158;8.634;2023-09-30T19:59:48;13.00;99.90
21481;DHT22;10902;48.158;8.634;2023-09-30T20:02:34;12.80;99.90
21481;DHT22;10902;48.158;8.634;2023-09-30T20:05:20;12.60;99.90
21481;DHT22;10902;48.158;8.634;2023-09-30T20:08:10;12.40;99.90
21481;DHT22;10902;48.158;8.634;2023-09-30T20:10:56;12.30;99.90
21481;DHT22;10902;48.158;8.634;2023-09-30T20:13:42;12.30;99.90
21481;DHT22;10902;48.158;8.634;2023-09-30T20:16:31;12.10;99.90
21481;DHT22;10902;48.158;8.634;2023-09-30T20:19:17;12.00;99.90
21481;DHT22;10902;48.158;8.634;2023-09-30T20:22:03;11.80;99.90
21481;DHT22;10902;48.158;8.634;2023-09-30T20:24:49;11.70;99.90
21481;DHT22;10902;48.158;8.634;2023-09-30T20:27:41;11.60;99.90
21481;DHT22;10902;48.158;8.634;2023-09-30T20:30:27;11.60;99.90
21481;DHT22;10902;48.158;8.634;2023-09-30T20:33:13;11.70;99.90
21481;DHT22;10902;48.158;8.634;2023-09-30T20:36:00;11.70;99.90
21481;DHT22;10902;48.158;8.634;2023-09-30T20:38:48;11.80;99.90
21481;DHT22;10902;48.158;8.634;2023-09-30T20:41:34;11.60;99.90
21481;DHT22;10902;48.158;8.634;2023-09-30T20:44:19;11.60;99.90
21481;DHT22;10902;48.158;8.634;2023-09-30T20:47:05;11.50;99.90
21481;DHT22;10902;48.158;8.634;2023-09-30T20:49:52;11.60;99.90
21481;DHT22;10902;48.158;8.634;2023-09-30T20:52:37;11.70;99.90
21481;DHT22;10902;48.158;8.634;2023-09-30T20:55:23;11.60;99.90
21481;DHT22;10902;48.158;8.634;2023-09-30T20:58:09;11.50;99.90
21481;DHT22;10902;48.158;8.634;2023-09-30T21:01:04;11.60;99.90
21481;DHT22;10902;48.158;8.634;2023-09-30T21:03:50;11.40;99.90
21481;DHT22;10902;48.158;8.634;2023-09-30T21:06:37;11.30;99.90
21481;DHT22;10902;48.158;8.634;2023-09-30T21:09:22;11.30;99.90
21481;DHT22;10902;48.158;8.634;2023-09-30T21:12:08;11.20;99.90
21481;DHT22;10902;48.158;8.634;2023-09-30T21:14:54;11.10;99.90
21481;DHT22;10902;48.158;8.634;2023-09-30T21:17:42;11.10;99.90
21481;DHT22;10902;48.158;8.634;2023-09-30T21:20:34;11.00;99.90
21481;DHT22;10902;48.158;8.634;2023-09-30T21:23:19;10.90;99.90
21481;DHT22;10902;48.158;8.634;2023-09-30T21:26:07;10.90;99.90
21481;DHT22;10902;48.158;8.634;2023-09-30T21:28:56;10.80;99.90
21481;DHT22;10902;48.158;8.634;2023-09-30T21:31:42;10.70;99.90
21481;DHT22;10902;48.158;8.634;2023-09-30T21:34:28;10.60;99.90
21481;DHT22;10902;48.158;8.634;2023-09-30T21:37:16;10.50;99.90
21481;DHT22;10902;48.158;8.634;2023-09-30T21:40:01;10.60;99.90
21481;DHT22;10902;48.158;8.634;2023-09-30T21:42:51;10.60;99.90
21481;DHT22;10902;48.158;8.634;2023-09-30T21:45:37;10.50;99.90
21481;DHT22;10902;48.158;8.634;2023-09-30T21:48:22;10.40;99.90
21481;DHT22;10902;48.158;8.634;2023-09-30T21:51:16;10.30;99.90
21481;DHT22;10902;48.158;8.634;2023-09-30T21:54:02;10.30;99.90
21481;DHT22;10902;48.158;8.634;2023-09-30T21:56:58;10.30;99.90
21481;DHT22;10902;48.158;8.634;2023-09-30T21:59:47;10.30;99.90
21481;DHT22;10902;48.158;8.634;2023-09-30T22:02:35;10.20;99.90
21481;DHT22;10902;48.158;8.634;2023-09-30T22:05:39;10.20;99.90
21481;DHT22;10902;48.158;8.634;2023-09-30T22:08:42;10.20;99.90
21481;DHT22;10902;48.158;8.634;2023-09-30T22:11:31;10.10;99.90
21481;DHT22;10902;48.158;8.634;2023-09-30T22:14:26;10.00;99.90
21481;DHT22;10902;48.158;8.634;2023-09-30T22:17:14;10.00;99.90
21481;DHT22;10902;48.158;8.634;2023-09-30T22:20:03;9.90;99.90